sensor_id;sensor_type;location;lat;lon;timestamp;temperature;humidity
9385;DHT22;4732;49.340;10.886;2023-03-05T04:01:59;1.00;99.90
9385;DHT22;4732;49.340;10.886;2023-03-05T04:04:24;1.00;99.90
9385;DHT22;4732;49.340;10.886;2023-03-05T04:06:50;0.90;99.90
9385;DHT22;4732;49.340;10.886;2023-03-05T04:09:16;1.00;99.90
9385;DHT22;4732;49.340;10.886;2023-03-05T04:11:41;1.00;99.90
9385;DHT22;4732;49.340;10.886;2023-03-05T04:14:07;1.00;99.90
9385;DHT22;4732;49.340;10.886;2023-03-05T04:16:32;1.00;99.90
9385;DHT22;4732;49.340;10.886;2023-03-05T04:18:58;1.00;99.90
9385;DHT22;4732;49.340;10.886;2023-03-05T04:21:23;1.00;99.90
9385;DHT22;4732;49.340;10.886;2023-03-05T04:23:49;1.00;99.90
9385;DHT22;4732;49.340;10.886;2023-03-05T04:26:14;1.00;99.90
9385;DHT22;4732;49.340;10.886;2023-03-05T04:28:40;1.00;99.90
9385;DHT22;4732;49.340;10.886;2023-03-05T04:31:05;1.00;99.90
9385;DHT22;4732;49.340;10.886;2023-03-05T04:33:31;1.00;99.90
9385;DHT22;4732;49.340;10.886;2023-03-05T04:35:58;1.00;99.90
9385;DHT22;4732;49.340;10.886;2023-03-05T04:38:23;1.00;99.90
9385;DHT22;4732;49.340;10.886;2023-03-05T04:40:49;1.00;99.90
9385;DHT22;4732;49.340;10.886;2023-03-05T04:43:14;1.00;99.90
9385;DHT22;4732;49.340;10.886;2023-03-05T04:45:41;1.00;99.90
9385;DHT22;4732;49.340;10.886;2023-03-05T04:48:08;1.00;99.90
9385;DHT22;4732;49.340;10.886;2023-03-05T04:50:33;1.00;99.90
9385;DHT22;4732;49.340;10.886;2023-03-05T04:52:59;1.00;99.90
9385;DHT22;4732;49.340;10.886;2023-03-05T04:55:25;0.90;99.90
9385;DHT22;4732;49.340;10.886;2023-03-05T04:57:51;1.00;99.90
9385;DHT22;4732;49.340;10.886;2023-03-05T05:00:17;1.00;99.90
9385;DHT22;4732;49.340;10.886;2023-03-05T05:02:44;1.00;99.90
9385;DHT22;4732;49.340;10.886;2023-03-05T05:05:14;0.90;99.90
9385;DHT22;4732;49.340;10.886;2023-03-05T05:07:40;0.90;99.90
9385;DHT22;4732;49.340;10.886;2023-03-05T05:10:06;0.90;99.90
9385;DHT22;4732;49.340;10.886;2023-03-05T05:12:33;0.90;99.90
9385;DHT22;4732;49.340;10.886;2023-03-05T05:14:59;0.90;99.90
9385;DHT22;4732;49.340;10.886;2023-03-05T05:17:25;0.90;99.90
9385;DHT22;4732;49.340;10.886;2023-03-05T05:19:51;0.90;99.90
9385;DHT22;4732;49.340;10.886;2023-03-05T05:22:17;0.80;99.90
9385;DHT22;4732;49.340;10.886;2023-03-05T05:24:42;0.90;99.90
9385;DHT22;4732;49.340;10.886;2023-03-05T05:27:08;0.90;99.90
9385;DHT22;4732;49.340;10.886;2023-03-05T05:29:33;0.90;99.90
9385;DHT22;4732;49.340;10.886;2023-03-05T05:31:59;0.90;99.90
9385;DHT22;4732;49.340;10.886;2023-03-05T05:34:25;0.90;99.90
9385;DHT22;4732;49.340;10.886;2023-03-05T05:36:50;0.90;99.90
9385;DHT22;4732;49.340;10.886;2023-03-05T05:39:17;0.90;99.90
9385;DHT22;4732;49.340;10.886;2023-03-05T05:41:42;1.30;99.90
9385;DHT22;4732;49.340;10.886;2023-03-05T05:44:08;0.90;99.90
9385;DHT22;4732;49.340;10.886;2023-03-05T05:46:34;0.90;99.90
9385;DHT22;4732;49.340;10.886;2023-03-05T05:49:00;0.90;99.90
9385;DHT22;4732;49.340;10.886;2023-03-05T05:51:25;0.90;99.90
9385;DHT22;4732;49.340;10.886;2023-03-05T05:53:51;0.90;99.90
9385;DHT22;4732;49.340;10.886;2023-03-05T05:56:17;0.90;99.90
9385;DHT22;4732;49.340;10.886;2023-03-05T05:58:44;0.90;99.90
9385;DHT22;4732;49.340;10.886;2023-03-05T06:01:26;0.90;99.90
9385;DHT22;4732;49.340;10.886;2023-03-05T06:03:52;0.90;99.90
9385;DHT22;4732;49.340;10.886;2023-03-05T06:06:20;1.00;99.90
9385;DHT22;4732;49.340;10.886;2023-03-05T06:08:46;1.00;99.90
9385;DHT22;4732;49.340;10.886;2023-03-05T06:11:13;1.00;99.90
9385;DHT22;4732;49.340;10.886;2023-03-05T06:13:38;1.00;99.90
9385;DHT22;4732;49.340;10.886;2023-03-05T06:16:07;1.00;99.90
9385;DHT22;4732;49.340;10.886;2023-03-05T06:18:34;1.00;99.90
9385;DHT22;4732;49.340;10.886;2023-03-05T06:21:05;1.00;99.90
9385;DHT22;4732;49.340;10.886;2023-03-05T06:23:31;1.00;99.90
9385;DHT22;4732;49.340;10.886;2023-03-05T06:26:02;1.00;99.90
9385;DHT22;4732;49.340;10.886;2023-03-05T06:28:28;1.00;99.90
9385;DHT22;4732;49.340;10.886;2023-03-05T06:31:08;1.00;99.90
9385;DHT22;4732;49.340;10.886;2023-03-05T06:33:34;1.10;99.90
9385;DHT22;4732;49.340;10.886;2023-03-05T06:36:05;1.10;99.90
9385;DHT22;4732;49.340;10.886;2023-03-05T06:38:31;1.20;99.90
9385;DHT22;4732;49.340;10.886;2023-03-05T06:41:18;1.20;99.90
9385;DHT22;4732;49.340;10.886;2023-03-05T06:43:45;1.20;99.90
9385;DHT22;4732;49.340;10.886;2023-03-05T06:46:17;1.30;99.90
9385;DHT22;4732;49.340;10.886;2023-03-05T06:48:43;1.30;99.90
9385;DHT22;4732;49.340;10.886;2023-03-05T06:51:18;1.30;99.90
9385;DHT22;4732;49.340;10.886;2023-03-05T06:53:45;1.30;99.90
9385;DHT22;4732;49.340;10.886;2023-03-05T06:56:11;1.40;99.90
9385;DHT22;4732;49.340;10.886;2023-03-05T06:58:38;1.40;99.90
9385;DHT22;4732;49.340;10.886;2023-03-05T07:01:05;1.50;99.90
9385;DHT22;4732;49.340;10.886;2023-03-05T07:03:32;1.50;99.90
9385;DHT22;4732;49.340;10.886;2023-03-05T07:05:57;1.50;99.90
9385;DHT22;4732;49.340;10.886;2023-03-05T07:08:23;1.60;99.90
9385;DHT22;4732;49.340;10.886;2023-03-05T07:10:48;1.60;99.90
9385;DHT22;4732;49.340;10.886;2023-03-05T07:13:14;1.60;99.90
9385;DHT22;4732;49.340;10.886;2023-03-05T07:15:40;1.60;99.90
9385;DHT22;4732;49.340;10.886;2023-03-05T07:18:06;1.60;99.90
9385;DHT22;4732;49.340;10.886;2023-03-05T07:20:36;1.70;99.90
9385;DHT22;4732;49.340;10.886;2023-03-05T07:23:02;1.70;99.90
9385;DHT22;4732;49.340;10.886;2023-03-05T07:25:28;1.70;99.90
9385;DHT22;4732;49.340;10.886;2023-03-05T07:27:54;1.70;99.90
9385;DHT22;4732;49.340;10.886;2023-03-05T07:30:19;1.80;99.90
9385;DHT22;4732;49.340;10.886;2023-03-05T07:32:45;1.80;99.90
9385;DHT22;4732;49.340;10.886;2023-03-05T07:35:10;1.80;99.90
9385;DHT22;4732;49.340;10.886;2023-03-05T07:37:36;1.80;99.90
9385;DHT22;4732;49.340;10.886;2023-03-05T07:40:02;1.90;99.90
9385;DHT22;4732;49.340;10.886;2023-03-05T07:42:29;2.00;99.90
9385;DHT22;4732;49.340;10.886;2023-03-05T07:44:54;2.00;99.90
9385;DHT22;4732;49.340;10.886;2023-03-05T07:47:20;2.00;99.90
9385;DHT22;4732;49.340;10.886;2023-03-05T07:49:47;2.10;99.90
9385;DHT22;4732;49.340;10.886;2023-03-05T07:52:13;2.10;99.90
9385;DHT22;4732;49.340;10.886;2023-03-05T07:54:39;2.20;99.90
9385;DHT22;4732;49.340;10.886;2023-03-05T07:57:10;2.30;99.90
9385;DHT22;4732;49.340;10.886;2023-03-05T07:59:37;2.30;99.90
9385;DHT22;4732;49.340;10.886;2023-03-05T08:02:04;2.40;99.90
9385;DHT22;4732;49.340;10.886;2023-03-05T08:04:29;2.40;99.90
9385;DHT22;4732;49.340;10.886;2023-03-05T08:06:56;2.40;99.90
9385;DHT22;4732;49.340;10.886;2023-03-05T08:09:22;2.40;99.90
9385;DHT22;4732;49.340;10.886;2023-03-05T08:11:47;2.60;99.90
9385;DHT22;4732;49.340;10.886;2023-03-05T08:14:13;2.60;99.90
9385;DHT22;4732;49.340;10.886;2023-03-05T08:16:39;2.60;99.90
9385;DHT22;4732;49.340;10.886;2023-03-05T08:19:05;2.70;99.90
9385;DHT22;4732;49.340;10.886;2023-03-05T08:21:34;2.60;99.90
9385;DHT22;4732;49.340;10.886;2023-03-05T08:24:06;2.60;99.90
9385;DHT22;4732;49.340;10.886;2023-03-05T08:26:34;2.70;99.90
9385;DHT22;4732;49.340;10.886;2023-03-05T08:29:00;2.70;99.90
9385;DHT22;4732;49.340;10.886;2023-03-05T08:31:28;2.80;99.90
9385;DHT22;4732;49.340;10.886;2023-03-05T08:33:56;2.90;99.90
9385;DHT22;4732;49.340;10.886;2023-03-05T08:36:22;3.00;99.90
9385;DHT22;4732;49.340;10.886;2023-03-05T08:38:48;3.00;99.90
9385;DHT22;4732;49.340;10.886;2023-03-05T08:41:16;3.00;99.90
9385;DHT22;4732;49.340;10.886;2023-03-05T08:43:42;3.10;99.90
9385;DHT22;4732;49.340;10.886;2023-03-05T08:46:10;3.10;99.90
9385;DHT22;4732;49.340;10.886;2023-03-05T08:48:36;3.00;99.90
9385;DHT22;4732;49.340;10.886;2023-03-05T08:51:12;3.00;99.90
9385;DHT22;4732;49.340;10.886;2023-03-05T08:53:39;3.00;99.90
9385;DHT22;4732;49.340;10.886;2023-03-05T08:56:05;3.00;99.90
9385;DHT22;4732;49.340;10.886;2023-03-05T08:58:31;3.00;99.90
9385;DHT22;4732;49.340;10.886;2023-03-05T09:00:57;2.90;99.90
9385;DHT22;4732;49.340;10.886;2023-03-05T09:03:22;2.90;99.90
9385;DHT22;4732;49.340;10.886;2023-03-05T09:05:48;2.80;99.90
9385;DHT22;4732;49.340;10.886;2023-03-05T09:08:14;2.70;99.90
9385;DHT22;4732;49.340;10.886;2023-03-05T09:10:43;2.80;99.90
9385;DHT22;4732;49.340;10.886;2023-03-05T09:13:09;2.70;99.90
9385;DHT22;4732;49.340;10.886;2023-03-05T09:15:35;2.60;99.90
9385;DHT22;4732;49.340;10.886;2023-03-05T09:18:00;2.60;99.90
9385;DHT22;4732;49.340;10.886;2023-03-05T09:20:26;2.70;99.90
9385;DHT22;4732;49.340;10.886;2023-03-05T09:22:52;2.60;99.90
9385;DHT22;4732;49.340;10.886;2023-03-05T09:25:18;2.60;99.90
9385;DHT22;4732;49.340;10.886;2023-03-05T09:27:44;2.50;99.90
9385;DHT22;4732;49.340;10.886;2023-03-05T09:30:11;2.50;99.90
9385;DHT22;4732;49.340;10.886;2023-03-05T09:32:37;2.50;99.90
9385;DHT22;4732;49.340;10.886;2023-03-05T09:35:02;2.50;99.90
9385;DHT22;4732;49.340;10.886;2023-03-05T09:37:28;2.50;99.90
9385;DHT22;4732;49.340;10.886;2023-03-05T09:39:55;2.50;99.90
9385;DHT22;4732;49.340;10.886;2023-03-05T09:45:32;2.50;99.90
9385;DHT22;4732;49.340;10.886;2023-03-05T09:50:43;2.60;99.90
9385;DHT22;4732;49.340;10.886;2023-03-05T09:53:36;2.50;99.90
9385;DHT22;4732;49.340;10.886;2023-03-05T09:56:10;2.50;99.90
9385;DHT22;4732;49.340;10.886;2023-03-05T10:01:07;2.50;99.90
9385;DHT22;4732;49.340;10.886;2023-03-05T10:03:56;2.40;99.90
9385;DHT22;4732;49.340;10.886;2023-03-05T10:06:52;2.40;99.90
9385;DHT22;4732;49.340;10.886;2023-03-05T10:09:40;2.50;99.90
9385;DHT22;4732;49.340;10.886;2023-03-05T10:12:22;2.40;99.90
9385;DHT22;4732;49.340;10.886;2023-03-05T10:14:52;2.50;99.90
9385;DHT22;4732;49.340;10.886;2023-03-05T10:20:34;2.50;99.90
9385;DHT22;4732;49.340;10.886;2023-03-05T10:23:18;2.50;99.90
9385;DHT22;4732;49.340;10.886;2023-03-05T10:29:32;2.50;99.90
9385;DHT22;4732;49.340;10.886;2023-03-05T10:35:09;2.50;99.90
9385;DHT22;4732;49.340;10.886;2023-03-05T10:37:53;2.60;99.90
9385;DHT22;4732;49.340;10.886;2023-03-05T10:45:45;2.70;99.90
9385;DHT22;4732;49.340;10.886;2023-03-05T10:48:28;2.70;99.90
9385;DHT22;4732;49.340;10.886;2023-03-05T10:51:12;2.70;99.90
9385;DHT22;4732;49.340;10.886;2023-03-05T10:53:55;2.70;99.90
9385;DHT22;4732;49.340;10.886;2023-03-05T10:56:23;2.70;99.90
9385;DHT22;4732;49.340;10.886;2023-03-05T10:58:49;2.80;99.90
9385;DHT22;4732;49.340;10.886;2023-03-05T11:03:46;2.90;99.90
9385;DHT22;4732;49.340;10.886;2023-03-05T11:06:13;3.00;99.90
9385;DHT22;4732;49.340;10.886;2023-03-05T11:08:39;3.20;99.90
9385;DHT22;4732;49.340;10.886;2023-03-05T11:11:17;4.40;99.90
9385;DHT22;4732;49.340;10.886;2023-03-05T11:13:51;3.30;99.90
9385;DHT22;4732;49.340;10.886;2023-03-05T11:17:20;3.40;99.90
9385;DHT22;4732;49.340;10.886;2023-03-05T11:19:16;3.50;99.90
9385;DHT22;4732;49.340;10.886;2023-03-05T11:21:44;3.60;99.90
9385;DHT22;4732;49.340;10.886;2023-03-05T11:24:16;3.60;99.90
9385;DHT22;4732;49.340;10.886;2023-03-05T11:26:50;3.70;99.90
9385;DHT22;4732;49.340;10.886;2023-03-05T11:29:23;3.70;99.90
9385;DHT22;4732;49.340;10.886;2023-03-05T11:31:49;3.80;99.90
9385;DHT22;4732;49.340;10.886;2023-03-05T11:36:59;3.70;99.90
9385;DHT22;4732;49.340;10.886;2023-03-05T11:39:29;3.70;99.90
9385;DHT22;4732;49.340;10.886;2023-03-05T11:42:12;3.60;99.90
9385;DHT22;4732;49.340;10.886;2023-03-05T11:44:47;3.50;99.90
9385;DHT22;4732;49.340;10.886;2023-03-05T11:47:18;3.50;99.90
9385;DHT22;4732;49.340;10.886;2023-03-05T11:49:50;3.50;99.90
9385;DHT22;4732;49.340;10.886;2023-03-05T11:52:25;3.50;99.90
9385;DHT22;4732;49.340;10.886;2023-03-05T11:57:23;3.40;99.90
9385;DHT22;4732;49.340;10.886;2023-03-05T11:59:51;3.40;99.90
9385;DHT22;4732;49.340;10.886;2023-03-05T12:02:21;3.30;99.90
9385;DHT22;4732;49.340;10.886;2023-03-05T12:04:48;3.30;99.90
9385;DHT22;4732;49.340;10.886;2023-03-05T12:07:18;3.30;99.90
9385;DHT22;4732;49.340;10.886;2023-03-05T12:09:48;3.30;99.90
9385;DHT22;4732;49.340;10.886;2023-03-05T12:12:45;3.40;99.90
9385;DHT22;4732;49.340;10.886;2023-03-05T12:17:59;3.40;99.90
9385;DHT22;4732;49.340;10.886;2023-03-05T12:20:51;3.40;99.90
9385;DHT22;4732;49.340;10.886;2023-03-05T12:23:20;3.40;99.90
9385;DHT22;4732;49.340;10.886;2023-03-05T12:25:47;3.40;99.90
9385;DHT22;4732;49.340;10.886;2023-03-05T12:28:16;3.50;99.90
9385;DHT22;4732;49.340;10.886;2023-03-05T12:33:33;3.60;99.90
9385;DHT22;4732;49.340;10.886;2023-03-05T12:38:55;3.70;99.90
9385;DHT22;4732;49.340;10.886;2023-03-05T12:47:13;3.50;99.90
9385;DHT22;4732;49.340;10.886;2023-03-05T12:51:46;3.60;99.90
9385;DHT22;4732;49.340;10.886;2023-03-05T12:54:36;3.60;99.90
9385;DHT22;4732;49.340;10.886;2023-03-05T12:59:47;3.50;99.90
9385;DHT22;4732;49.340;10.886;2023-03-05T13:02:35;3.60;99.90
9385;DHT22;4732;49.340;10.886;2023-03-05T13:05:18;3.60;99.90
9385;DHT22;4732;49.340;10.886;2023-03-05T13:07:45;3.60;99.90
9385;DHT22;4732;49.340;10.886;2023-03-05T13:10:26;3.50;99.90
9385;DHT22;4732;49.340;10.886;2023-03-05T13:12:54;3.50;99.90
9385;DHT22;4732;49.340;10.886;2023-03-05T13:15:22;3.50;99.90
9385;DHT22;4732;49.340;10.886;2023-03-05T13:18:02;3.50;99.90
9385;DHT22;4732;49.340;10.886;2023-03-05T13:20:39;3.50;99.90
9385;DHT22;4732;49.340;10.886;2023-03-05T13:25:32;3.40;99.90
9385;DHT22;4732;49.340;10.886;2023-03-05T13:28:03;3.40;99.90
9385;DHT22;4732;49.340;10.886;2023-03-05T13:30:30;3.50;99.90
9385;DHT22;4732;49.340;10.886;2023-03-05T13:33:02;3.40;99.90
9385;DHT22;4732;49.340;10.886;2023-03-05T13:35:28;3.30;99.90
9385;DHT22;4732;49.340;10.886;2023-03-05T13:37:55;3.30;99.90
9385;DHT22;4732;49.340;10.886;2023-03-05T13:40:29;3.30;99.90
9385;DHT22;4732;49.340;10.886;2023-03-05T13:43:08;3.20;99.90
9385;DHT22;4732;49.340;10.886;2023-03-05T13:45:36;3.30;99.90
9385;DHT22;4732;49.340;10.886;2023-03-05T13:48:03;3.20;99.90
9385;DHT22;4732;49.340;10.886;2023-03-05T13:50:37;3.20;99.90
9385;DHT22;4732;49.340;10.886;2023-03-05T13:53:16;3.20;99.90
9385;DHT22;4732;49.340;10.886;2023-03-05T13:55:44;3.20;99.90
9385;DHT22;4732;49.340;10.886;2023-03-05T13:58:45;3.10;99.90
9385;DHT22;4732;49.340;10.886;2023-03-05T14:01:23;3.20;99.90
9385;DHT22;4732;49.340;10.886;2023-03-05T14:03:52;3.10;99.90
9385;DHT22;4732;49.340;10.886;2023-03-05T14:06:20;3.10;99.90
9385;DHT22;4732;49.340;10.886;2023-03-05T14:08:51;3.20;99.90
9385;DHT22;4732;49.340;10.886;2023-03-05T14:11:18;3.10;99.90
9385;DHT22;4732;49.340;10.886;2023-03-05T14:13:45;3.10;99.90
9385;DHT22;4732;49.340;10.886;2023-03-05T14:16:24;3.10;99.90
9385;DHT22;4732;49.340;10.886;2023-03-05T14:18:59;3.10;99.90
9385;DHT22;4732;49.340;10.886;2023-03-05T14:21:45;3.10;99.90
9385;DHT22;4732;49.340;10.886;2023-03-05T14:24:13;3.10;99.90
9385;DHT22;4732;49.340;10.886;2023-03-05T14:26:47;3.00;99.90
9385;DHT22;4732;49.340;10.886;2023-03-05T14:29:14;3.00;99.90
9385;DHT22;4732;49.340;10.886;2023-03-05T14:34:28;3.00;99.90
9385;DHT22;4732;49.340;10.886;2023-03-05T14:37:01;3.00;99.90
9385;DHT22;4732;49.340;10.886;2023-03-05T14:39:53;3.00;99.90
9385;DHT22;4732;49.340;10.886;2023-03-05T14:42:36;3.00;99.90
9385;DHT22;4732;49.340;10.886;2023-03-05T14:45:22;2.90;99.90
9385;DHT22;4732;49.340;10.886;2023-03-05T14:47:49;3.00;99.90
9385;DHT22;4732;49.340;10.886;2023-03-05T14:50:18;2.90;99.90
9385;DHT22;4732;49.340;10.886;2023-03-05T14:52:46;2.90;99.90
9385;DHT22;4732;49.340;10.886;2023-03-05T14:55:20;2.90;99.90
9385;DHT22;4732;49.340;10.886;2023-03-05T14:57:47;2.90;99.90
9385;DHT22;4732;49.340;10.886;2023-03-05T15:00:20;2.90;99.90
9385;DHT22;4732;49.340;10.886;2023-03-05T15:02:47;2.80;99.90
9385;DHT22;4732;49.340;10.886;2023-03-05T15:05:13;2.80;99.90
9385;DHT22;4732;49.340;10.886;2023-03-05T15:07:39;2.80;99.90
9385;DHT22;4732;49.340;10.886;2023-03-05T15:10:05;2.80;99.90
9385;DHT22;4732;49.340;10.886;2023-03-05T15:12:32;2.80;99.90
9385;DHT22;4732;49.340;10.886;2023-03-05T15:14:57;2.70;99.90
9385;DHT22;4732;49.340;10.886;2023-03-05T15:17:34;2.80;99.90
9385;DHT22;4732;49.340;10.886;2023-03-05T15:20:01;2.80;99.90
9385;DHT22;4732;49.340;10.886;2023-03-05T15:22:32;2.80;99.90
9385;DHT22;4732;49.340;10.886;2023-03-05T15:24:57;2.70;99.90
9385;DHT22;4732;49.340;10.886;2023-03-05T15:27:22;2.70;99.90
9385;DHT22;4732;49.340;10.886;2023-03-05T15:29:51;2.60;99.90
9385;DHT22;4732;49.340;10.886;2023-03-05T15:32:16;2.60;99.90
9385;DHT22;4732;49.340;10.886;2023-03-05T15:34:42;2.60;99.90
9385;DHT22;4732;49.340;10.886;2023-03-05T15:37:08;2.60;99.90
9385;DHT22;4732;49.340;10.886;2023-03-05T15:39:33;2.50;99.90
9385;DHT22;4732;49.340;10.886;2023-03-05T15:41:59;2.50;99.90
9385;DHT22;4732;49.340;10.886;2023-03-05T15:44:25;2.60;99.90
9385;DHT22;4732;49.340;10.886;2023-03-05T15:46:51;2.50;99.90
9385;DHT22;4732;49.340;10.886;2023-03-05T15:49:16;2.60;99.90
9385;DHT22;4732;49.340;10.886;2023-03-05T15:51:45;2.60;99.90
9385;DHT22;4732;49.340;10.886;2023-03-05T15:54:10;2.50;99.90
9385;DHT22;4732;49.340;10.886;2023-03-05T15:56:36;2.50;99.90
9385;DHT22;4732;49.340;10.886;2023-03-05T15:59:02;2.50;99.90
9385;DHT22;4732;49.340;10.886;2023-03-05T16:01:28;2.50;99.90
9385;DHT22;4732;49.340;10.886;2023-03-05T16:03:53;2.50;99.90
9385;DHT22;4732;49.340;10.886;2023-03-05T16:06:20;2.50;99.90
9385;DHT22;4732;49.340;10.886;2023-03-05T16:08:53;2.60;99.90
9385;DHT22;4732;49.340;10.886;2023-03-05T16:11:19;2.50;99.90
9385;DHT22;4732;49.340;10.886;2023-03-05T16:13:45;2.50;99.90
9385;DHT22;4732;49.340;10.886;2023-03-05T16:16:11;2.50;99.90
9385;DHT22;4732;49.340;10.886;2023-03-05T16:18:40;2.50;99.90
9385;DHT22;4732;49.340;10.886;2023-03-05T16:21:06;2.40;99.90
9385;DHT22;4732;49.340;10.886;2023-03-05T16:23:32;2.40;99.90
9385;DHT22;4732;49.340;10.886;2023-03-05T16:25:57;2.40;99.90
9385;DHT22;4732;49.340;10.886;2023-03-05T16:28:23;2.40;99.90
9385;DHT22;4732;49.340;10.886;2023-03-05T16:30:55;2.40;99.90
9385;DHT22;4732;49.340;10.886;2023-03-05T16:33:21;2.40;99.90
9385;DHT22;4732;49.340;10.886;2023-03-05T16:35:48;2.40;99.90
9385;DHT22;4732;49.340;10.886;2023-03-05T16:38:13;2.30;99.90
9385;DHT22;4732;49.340;10.886;2023-03-05T16:40:39;2.30;99.90
9385;DHT22;4732;49.340;10.886;2023-03-05T16:43:05;2.30;99.90
9385;DHT22;4732;49.340;10.886;2023-03-05T16:45:30;2.30;99.90
9385;DHT22;4732;49.340;10.886;2023-03-05T16:47:57;2.30;99.90
9385;DHT22;4732;49.340;10.886;2023-03-05T16:50:23;2.30;99.90
9385;DHT22;4732;49.340;10.886;2023-03-05T16:52:48;2.30;99.90
9385;DHT22;4732;49.340;10.886;2023-03-05T16:55:14;2.20;99.90
9385;DHT22;4732;49.340;10.886;2023-03-05T16:57:39;2.30;99.90
9385;DHT22;4732;49.340;10.886;2023-03-05T17:00:07;2.20;99.90
9385;DHT22;4732;49.340;10.886;2023-03-05T17:02:33;2.20;99.90
9385;DHT22;4732;49.340;10.886;2023-03-05T17:04:59;2.20;99.90
9385;DHT22;4732;49.340;10.886;2023-03-05T17:07:26;2.30;99.90
9385;DHT22;4732;49.340;10.886;2023-03-05T17:09:51;2.20;99.90
9385;DHT22;4732;49.340;10.886;2023-03-05T17:12:18;2.20;99.90
9385;DHT22;4732;49.340;10.886;2023-03-05T17:14:44;2.20;99.90
9385;DHT22;4732;49.340;10.886;2023-03-05T17:17:10;2.20;99.90
9385;DHT22;4732;49.340;10.886;2023-03-05T17:19:35;2.20;99.90
9385;DHT22;4732;49.340;10.886;2023-03-05T17:22:02;2.10;99.90
9385;DHT22;4732;49.340;10.886;2023-03-05T17:24:27;2.10;99.90
9385;DHT22;4732;49.340;10.886;2023-03-05T17:26:54;2.10;99.90
9385;DHT22;4732;49.340;10.886;2023-03-05T17:29:19;2.10;99.90
9385;DHT22;4732;49.340;10.886;2023-03-05T17:31:49;2.10;99.90
9385;DHT22;4732;49.340;10.886;2023-03-05T17:34:17;2.10;99.90
9385;DHT22;4732;49.340;10.886;2023-03-05T17:36:43;2.10;99.90
9385;DHT22;4732;49.340;10.886;2023-03-05T17:39:10;2.10;99.90
9385;DHT22;4732;49.340;10.886;2023-03-05T17:41:35;2.10;99.90
9385;DHT22;4732;49.340;10.886;2023-03-05T17:44:01;2.10;99.90
9385;DHT22;4732;49.340;10.886;2023-03-05T17:46:26;2.10;99.90
9385;DHT22;4732;49.340;10.886;2023-03-05T17:48:52;2.00;99.90
9385;DHT22;4732;49.340;10.886;2023-03-05T17:51:17;2.00;99.90
9385;DHT22;4732;49.340;10.886;2023-03-05T17:53:43;2.00;99.90
9385;DHT22;4732;49.340;10.886;2023-03-05T17:56:10;2.10;99.90
9385;DHT22;4732;49.340;10.886;2023-03-05T17:58:36;2.10;99.90
9385;DHT22;4732;49.340;10.886;2023-03-05T18:01:03;2.10;99.90
9385;DHT22;4732;49.340;10.886;2023-03-05T18:03:29;2.10;99.90
9385;DHT22;4732;49.340;10.886;2023-03-05T18:05:54;2.10;99.90
9385;DHT22;4732;49.340;10.886;2023-03-05T18:08:20;2.10;99.90
9385;DHT22;4732;49.340;10.886;2023-03-05T18:10:45;2.10;99.90
9385;DHT22;4732;49.340;10.886;2023-03-05T18:13:11;2.10;99.90
9385;DHT22;4732;49.340;10.886;2023-03-05T18:15:37;2.10;99.90
9385;DHT22;4732;49.340;10.886;2023-03-05T18:18:06;2.10;99.90
9385;DHT22;4732;49.340;10.886;2023-03-05T18:20:33;2.10;99.90
9385;DHT22;4732;49.340;10.886;2023-03-05T18:23:02;2.00;99.90
9385;DHT22;4732;49.340;10.886;2023-03-05T18:25:29;2.00;99.90
9385;DHT22;4732;49.340;10.886;2023-03-05T18:28:03;2.00;99.90
9385;DHT22;4732;49.340;10.886;2023-03-05T18:30:29;2.00;99.90
9385;DHT22;4732;49.340;10.886;2023-03-05T18:32:56;2.00;99.90
9385;DHT22;4732;49.340;10.886;2023-03-05T18:35:22;1.90;99.90
9385;DHT22;4732;49.340;10.886;2023-03-05T18:37:47;2.00;99.90
9385;DHT22;4732;49.340;10.886;2023-03-05T18:40:15;2.00;99.90
9385;DHT22;4732;49.340;10.886;2023-03-05T18:42:41;2.00;99.90
9385;DHT22;4732;49.340;10.886;2023-03-05T18:45:07;1.90;99.90
9385;DHT22;4732;49.340;10.886;2023-03-05T18:47:35;1.90;99.90
9385;DHT22;4732;49.340;10.886;2023-03-05T18:50:01;1.90;99.90
9385;DHT22;4732;49.340;10.886;2023-03-05T18:52:26;1.90;99.90
9385;DHT22;4732;49.340;10.886;2023-03-05T18:54:52;1.90;99.90
9385;DHT22;4732;49.340;10.886;2023-03-05T18:57:17;1.80;99.90
9385;DHT22;4732;49.340;10.886;2023-03-05T18:59:43;1.80;99.90
9385;DHT22;4732;49.340;10.886;2023-03-05T19:02:13;1.90;99.90
9385;DHT22;4732;49.340;10.886;2023-03-05T19:04:38;1.90;99.90
9385;DHT22;4732;49.340;10.886;2023-03-05T19:07:04;1.80;99.90
9385;DHT22;4732;49.340;10.886;2023-03-05T19:09:30;1.90;99.90
9385;DHT22;4732;49.340;10.886;2023-03-05T19:12:15;1.80;99.90
9385;DHT22;4732;49.340;10.886;2023-03-05T19:14:40;1.80;99.90
9385;DHT22;4732;49.340;10.886;2023-03-05T19:17:06;1.80;99.90
9385;DHT22;4732;49.340;10.886;2023-03-05T19:19:31;1.80;99.90
9385;DHT22;4732;49.340;10.886;2023-03-05T19:21:57;1.80;99.90
9385;DHT22;4732;49.340;10.886;2023-03-05T19:24:26;1.80;99.90
9385;DHT22;4732;49.340;10.886;2023-03-05T19:26:52;1.80;99.90
9385;DHT22;4732;49.340;10.886;2023-03-05T19:29:21;1.80;99.90
9385;DHT22;4732;49.340;10.886;2023-03-05T19:31:47;1.80;99.90
9385;DHT22;4732;49.340;10.886;2023-03-05T19:34:12;1.80;99.90
9385;DHT22;4732;49.340;10.886;2023-03-05T19:36:38;1.80;99.90
9385;DHT22;4732;49.340;10.886;2023-03-05T19:39:04;1.80;99.90
9385;DHT22;4732;49.340;10.886;2023-03-05T19:41:30;1.80;99.90
9385;DHT22;4732;49.340;10.886;2023-03-05T19:43:56;1.80;99.90
9385;DHT22;4732;49.340;10.886;2023-03-05T19:46:21;1.80;99.90
9385;DHT22;4732;49.340;10.886;2023-03-05T19:48:47;1.70;99.90
9385;DHT22;4732;49.340;10.886;2023-03-05T19:51:15;1.70;99.90
9385;DHT22;4732;49.340;10.886;2023-03-05T19:53:41;1.70;99.90
9385;DHT22;4732;49.340;10.886;2023-03-05T19:56:08;1.70;99.90
9385;DHT22;4732;49.340;10.886;2023-03-05T19:58:35;1.70;99.90
9385;DHT22;4732;49.340;10.886;2023-03-05T20:01:09;1.70;99.90
9385;DHT22;4732;49.340;10.886;2023-03-05T20:03:35;1.70;99.90
9385;DHT22;4732;49.340;10.886;2023-03-05T20:06:03;1.70;99.90
9385;DHT22;4732;49.340;10.886;2023-03-05T20:08:29;1.70;99.90
9385;DHT22;4732;49.340;10.886;2023-03-05T20:10:55;1.70;99.90
9385;DHT22;4732;49.340;10.886;2023-03-05T20:13:20;1.70;99.90
9385;DHT22;4732;49.340;10.886;2023-03-05T20:15:46;1.70;99.90
9385;DHT22;4732;49.340;10.886;2023-03-05T20:18:11;1.70;99.90
9385;DHT22;4732;49.340;10.886;2023-03-05T20:20:37;1.70;99.90
9385;DHT22;4732;49.340;10.886;2023-03-05T20:23:02;1.70;99.90
9385;DHT22;4732;49.340;10.886;2023-03-05T20:25:28;1.70;99.90
9385;DHT22;4732;49.340;10.886;2023-03-05T20:27:53;1.70;99.90
9385;DHT22;4732;49.340;10.886;2023-03-05T20:30:19;1.70;99.90
9385;DHT22;4732;49.340;10.886;2023-03-05T20:32:45;1.70;99.90
9385;DHT22;4732;49.340;10.886;2023-03-05T20:35:16;1.70;99.90
9385;DHT22;4732;49.340;10.886;2023-03-05T20:37:42;1.70;99.90
9385;DHT22;4732;49.340;10.886;2023-03-05T20:40:15;1.60;99.90
9385;DHT22;4732;49.340;10.886;2023-03-05T20:42:41;1.60;99.90
9385;DHT22;4732;49.340;10.886;2023-03-05T20:45:07;1.60;99.90
9385;DHT22;4732;49.340;10.886;2023-03-05T20:47:33;1.60;99.90
9385;DHT22;4732;49.340;10.886;2023-03-05T20:50:11;1.60;99.90
9385;DHT22;4732;49.340;10.886;2023-03-05T20:52:38;1.70;99.90
9385;DHT22;4732;49.340;10.886;2023-03-05T20:55:06;1.70;99.90
9385;DHT22;4732;49.340;10.886;2023-03-05T20:57:32;1.70;99.90
9385;DHT22;4732;49.340;10.886;2023-03-05T20:59:57;1.60;99.90
9385;DHT22;4732;49.340;10.886;2023-03-05T21:02:24;1.60;99.90
9385;DHT22;4732;49.340;10.886;2023-03-05T21:04:49;1.50;99.90
9385;DHT22;4732;49.340;10.886;2023-03-05T21:07:15;1.60;99.90